Details From DAAG - Alger Houari Boumediene
To DABS - Cheikh Larbi Tebessi
Flight Number -
Tags Generated
Created
Modified
Stats Distance 251 nm / 465 km
Max Altitude 0 ft / 0 m
Waypoints 2
Social Downloads 1
Likes 0
Share VATSIM

Download

Looking for another format? Having issues loading an existing format? Contact us
Advertisement - Login to hide

Notes

Generated

Route

DAAG DABS

ID Type Via Altitude Latitude Longitude Leg Dist Tot Dist Heading (true) Name
O DAAG APT - 0 ft / 0 m 36.69213˚ 3.17083˚ - 0 nm - -
O DABS APT - 0 ft / 0 m 35.43568˚ 8.10811˚ 251 nm 251 nm 106° / 109° -

Altitude Profile

Advertisement - Login to hide

Weather


0- 5 10 15 20 25 30 35+ Temperature / ° C

Clouds and Precipitation
Forecast for 2018-05-22 06:00 UTC. Updated an hour ago

Ground ~20,000 ft ~40,000 ft Winds

DAAG

Details ICAO DAAG (ALG)
Name Alger Houari Boumediene
Region Algeria
Timezone Africa/Algiers (UTC+1.0)
Stats Elevation 82 ft / 25 m (AMSL)
Location 36.697521° 3.213079°
Runways 2
Magnetic Variation 1.102° E

METAR

DAAG 220600Z 20002KT 4000 BR FEW020 13/12 Q1015

Decode

TAF

TAF DAAG 220500Z 2206/2306 VRB02KT 3000 BR FEW020 TEMPO 2206/2208 1500 BECMG 2208/2211 34010KT 8000 NSW PROB30 TEMPO 2212/2216 FEW026TCU BECMG 2218/2221 VRB02KT

Decode

Departure Runways

ID Width Length Bearing (true) Bearing (mag) Surface Threshold Offset Overrun Length
05 197 ft / 60 m 11,459 ft / 3,493 m 52.87° 51.77° Asphalt 0 ft / 0 m 0 ft / 0 m
09 148 ft / 45 m 11,442 ft / 3,487 m 91.75° 90.65° Asphalt 0 ft / 0 m 1,017 ft / 310 m
23 197 ft / 60 m 11,459 ft / 3,493 m 232.89° 231.79° Asphalt 0 ft / 0 m 0 ft / 0 m
27 148 ft / 45 m 11,442 ft / 3,487 m 271.78° 270.68° Asphalt 0 ft / 0 m 0 ft / 0 m

DABS

Details ICAO DABS (TEE)
Name CHEIKH LARBI TEBESSI
Region Algeria
Timezone Africa/Algiers (UTC+1.0)
Stats Elevation 2,661 ft / 811 m (AMSL)
Location 35.431610° 8.120716°
Runways 2
Magnetic Variation 2.009° E

METAR

DABS 220600Z 10010KT 8000 FEW016 BKN033 15/14 Q1014

Decode

TAF

TAF DABS 220500Z 2206/2306 14008KT 8000 FEW030TCU BKN033 TEMPO 2206/2218 32015G25KT 2000 TSRA SCT023CB PROB30 TEMPO 2206/2210 -TSGR BECMG 2210/2212 35012KT PROB30 TEMPO 2218/2222 5000 RA FEW026CB BECMG 2222/2224 13007KT

Decode

Destination Runways

ID Width Length Bearing (true) Bearing (mag) Surface Threshold Offset Overrun Length
11 148 ft / 45 m 9,850 ft / 3,002 m 112.75° 110.74° Asphalt 0 ft / 0 m 345 ft / 105 m
12 98 ft / 30 m 7,867 ft / 2,398 m 121.86° 119.85° Asphalt 0 ft / 0 m 0 ft / 0 m
29 148 ft / 45 m 9,850 ft / 3,002 m 292.76° 290.75° Asphalt 0 ft / 0 m 345 ft / 105 m
30 98 ft / 30 m 7,867 ft / 2,398 m 301.88° 299.87° Asphalt 0 ft / 0 m 0 ft / 0 m

Popular Alternatives